createdAt,value
2018-05-08T00:00:48.045Z,2.83
2018-05-08T00:03:16.297Z,2.70
2018-05-08T00:05:43.760Z,2.40
2018-05-08T00:08:11.239Z,2.63
2018-05-08T00:10:38.709Z,2.40
2018-05-08T00:13:06.958Z,2.93
2018-05-08T00:15:34.420Z,2.70
2018-05-08T00:18:01.887Z,2.60
2018-05-08T00:20:30.207Z,2.40
2018-05-08T00:22:57.669Z,3.40
2018-05-08T00:25:25.174Z,2.90
2018-05-08T00:27:52.632Z,2.73
2018-05-08T00:30:20.108Z,2.80
2018-05-08T00:32:49.081Z,2.50
2018-05-08T00:35:18.063Z,3.33
2018-05-08T00:37:45.547Z,2.83
2018-05-08T00:40:13.903Z,2.60
2018-05-08T00:42:43.013Z,2.50
2018-05-08T00:45:11.266Z,2.97
2018-05-08T00:47:38.768Z,3.10
2018-05-08T00:50:06.253Z,3.00
2018-05-08T00:52:33.713Z,2.70
2018-05-08T00:55:06.183Z,2.50
2018-05-08T00:57:33.665Z,3.13
2018-05-08T01:00:01.162Z,3.37
2018-05-08T01:02:29.694Z,3.00
2018-05-08T01:04:57.152Z,3.67
2018-05-08T01:07:24.640Z,2.93
2018-05-08T01:09:53.698Z,2.60
2018-05-08T01:12:21.187Z,3.10
2018-05-08T01:14:48.656Z,3.13
2018-05-08T01:17:16.890Z,3.07
2018-05-08T01:19:44.384Z,3.07
2018-05-08T01:22:11.858Z,2.90
2018-05-08T01:24:40.109Z,2.90
2018-05-08T01:27:07.581Z,2.80
2018-05-08T01:29:35.829Z,2.80
2018-05-08T01:32:03.293Z,4.20
2018-05-08T01:34:30.936Z,2.80
2018-05-08T01:36:58.402Z,3.00
2018-05-08T01:39:25.902Z,2.83
2018-05-08T01:41:54.122Z,3.17
2018-05-08T01:44:21.611Z,3.00
2018-05-08T01:46:49.078Z,2.80
2018-05-08T01:49:16.549Z,3.03
2018-05-08T01:51:44.779Z,3.03
2018-05-08T01:54:12.255Z,3.70
2018-05-08T01:56:39.781Z,3.20
2018-05-08T01:59:07.264Z,3.10
2018-05-08T02:01:34.735Z,2.87
2018-05-08T02:04:02.216Z,2.50
2018-05-08T02:06:29.721Z,2.70
2018-05-08T02:08:57.272Z,2.87
2018-05-08T02:11:24.741Z,3.00
2018-05-08T02:13:52.211Z,3.20
2018-05-08T02:16:19.689Z,3.20
2018-05-08T02:18:47.933Z,3.33
2018-05-08T02:21:15.433Z,3.30
2018-05-08T02:23:43.655Z,3.20
2018-05-08T02:26:11.165Z,3.30
2018-05-08T02:28:39.402Z,3.10
2018-05-08T02:31:06.878Z,3.87
2018-05-08T02:33:35.111Z,2.80
2018-05-08T02:36:02.591Z,2.93
2018-05-08T02:38:30.057Z,2.77
2018-05-08T02:40:57.520Z,3.47
2018-05-08T02:43:24.998Z,3.03
2018-05-08T02:45:53.249Z,3.10
2018-05-08T02:48:20.757Z,3.20
2018-05-08T02:50:48.238Z,4.37
2018-05-08T02:53:15.700Z,3.23
2018-05-08T02:55:43.173Z,3.30
2018-05-08T02:58:10.666Z,2.93
2018-05-08T03:00:38.888Z,3.13
2018-05-08T03:03:06.372Z,3.60
2018-05-08T03:05:34.108Z,3.00
2018-05-08T03:08:01.572Z,3.50
2018-05-08T03:10:29.040Z,3.33
2018-05-08T03:12:56.527Z,3.27
2018-05-08T03:15:24.764Z,4.80
2018-05-08T03:17:52.253Z,3.50
2018-05-08T03:20:20.504Z,3.27
2018-05-08T03:22:47.980Z,3.20
2018-05-08T03:25:16.214Z,3.37
2018-05-08T03:27:43.687Z,3.37
2018-05-08T03:30:11.960Z,3.13
2018-05-08T03:32:39.471Z,2.80
2018-05-08T03:35:06.930Z,3.23
2018-05-08T03:37:34.816Z,2.93
2018-05-08T03:40:02.284Z,3.00
2018-05-08T03:42:29.755Z,3.10
2018-05-08T03:44:57.283Z,3.50
2018-05-08T03:47:24.912Z,3.47
2018-05-08T03:49:53.222Z,3.40
2018-05-08T03:52:20.679Z,4.40
2018-05-08T03:54:48.165Z,3.50
2018-05-08T03:57:15.874Z,3.50
2018-05-08T03:59:43.388Z,3.07
2018-05-08T04:02:22.947Z,3.47
2018-05-08T04:05:02.451Z,3.67
2018-05-08T04:07:41.905Z,3.40
2018-05-08T04:10:09.379Z,3.90
2018-05-08T04:12:36.920Z,3.40
2018-05-08T04:15:04.392Z,3.20
2018-05-08T04:17:31.856Z,3.80
2018-05-08T04:19:59.346Z,3.77
2018-05-08T04:22:26.840Z,3.63
2018-05-08T04:24:54.315Z,3.33
2018-05-08T04:27:21.811Z,3.60
2018-05-08T04:29:50.064Z,4.53
2018-05-08T04:32:17.537Z,3.70
2018-05-08T04:34:45.772Z,3.83
2018-05-08T04:37:13.258Z,4.13
2018-05-08T04:39:41.492Z,3.97
2018-05-08T04:42:09.014Z,3.67
2018-05-08T04:44:36.804Z,3.90
2018-05-08T04:47:04.300Z,4.00
2018-05-08T04:49:31.844Z,4.00
2018-05-08T04:51:59.312Z,3.83
2018-05-08T04:54:27.576Z,3.53
2018-05-08T04:56:55.872Z,4.00
2018-05-08T04:59:23.331Z,4.00
2018-05-08T05:01:51.582Z,3.90
2018-05-08T05:04:19.065Z,4.13
2018-05-08T05:06:47.305Z,4.20
2018-05-08T05:09:14.787Z,3.60
2018-05-08T05:11:42.274Z,4.00
2018-05-08T05:14:10.500Z,4.13
2018-05-08T05:16:38.072Z,4.40
2018-05-08T05:19:06.303Z,3.70
2018-05-08T05:21:33.758Z,3.90
2018-05-08T05:24:01.235Z,3.67
2018-05-08T05:26:28.785Z,3.97
2018-05-08T05:28:56.188Z,4.20
2018-05-08T05:31:23.741Z,4.47
2018-05-08T05:33:51.205Z,4.70
2018-05-08T05:36:18.663Z,3.80
2018-05-08T05:38:46.184Z,4.50
2018-05-08T05:41:13.647Z,4.73
2018-05-08T05:43:41.123Z,4.80
2018-05-08T05:46:08.592Z,5.10
2018-05-08T05:48:36.079Z,4.53
2018-05-08T05:51:03.545Z,5.03
2018-05-08T05:53:31.018Z,4.67
2018-05-08T05:55:58.492Z,4.17
2018-05-08T05:58:25.956Z,4.47
2018-05-08T06:00:53.430Z,4.10
2018-05-08T06:03:20.904Z,4.70
2018-05-08T06:05:49.143Z,4.37
2018-05-08T06:08:16.647Z,4.20
2018-05-08T06:10:44.885Z,4.50
2018-05-08T06:13:12.347Z,4.47
2018-05-08T06:15:40.059Z,3.90
2018-05-08T06:18:07.534Z,4.20
2018-05-08T06:20:35.040Z,4.33
2018-05-08T06:23:03.336Z,3.90
2018-05-08T06:25:31.572Z,4.50
2018-05-08T06:27:59.056Z,4.43
2018-05-08T06:30:27.307Z,3.60
2018-05-08T06:32:54.795Z,4.20
2018-05-08T06:35:23.015Z,3.90
2018-05-08T06:37:50.491Z,3.83
2018-05-08T06:40:17.948Z,3.70
2018-05-08T06:42:45.424Z,4.10
2018-05-08T06:45:12.885Z,3.30
2018-05-08T06:47:41.284Z,3.30
2018-05-08T06:50:08.780Z,3.40
2018-05-08T06:52:36.268Z,3.70
2018-05-08T06:55:03.748Z,3.13
2018-05-08T06:57:31.979Z,3.70
2018-05-08T06:59:59.446Z,3.50
2018-05-08T07:02:26.929Z,4.33
2018-05-08T07:04:55.179Z,4.00
2018-05-08T07:07:22.648Z,4.63
2018-05-08T07:09:50.108Z,3.97
2018-05-08T07:12:17.746Z,4.40
2018-05-08T07:14:45.219Z,3.27
2018-05-08T07:17:12.692Z,3.60
2018-05-08T07:19:40.933Z,3.30
2018-05-08T07:22:08.404Z,4.40
2018-05-08T07:24:37.380Z,3.90
2018-05-08T07:27:04.853Z,3.80
2018-05-08T07:29:32.344Z,3.73
2018-05-08T07:32:00.575Z,3.47
2018-05-08T07:34:28.056Z,4.10
2018-05-08T07:36:55.512Z,3.57
2018-05-08T07:39:23.003Z,3.40
2018-05-08T07:41:50.481Z,3.70
2018-05-08T07:44:17.961Z,4.40
2018-05-08T07:46:45.440Z,3.80
2018-05-08T07:49:12.907Z,4.03
2018-05-08T07:51:41.211Z,3.30
2018-05-08T07:54:08.620Z,3.40
2018-05-08T07:56:36.108Z,3.53
2018-05-08T07:59:04.341Z,3.60
2018-05-08T08:01:31.824Z,3.77
2018-05-08T08:04:00.046Z,3.80
2018-05-08T08:06:27.529Z,4.90
2018-05-08T08:08:54.987Z,3.50
2018-05-08T08:11:22.473Z,3.37
2018-05-08T08:13:50.726Z,3.30
2018-05-08T08:16:18.193Z,3.67
2018-05-08T08:18:45.825Z,2.80
2018-05-08T08:21:13.319Z,3.40
2018-05-08T08:23:41.620Z,3.30
2018-05-08T08:26:09.081Z,3.10
2018-05-08T08:28:37.319Z,2.60
2018-05-08T08:31:04.779Z,2.83
2018-05-08T08:33:33.031Z,2.60
2018-05-08T08:36:00.537Z,2.73
2018-05-08T08:38:28.780Z,2.90
2018-05-08T08:40:56.300Z,2.97
2018-05-08T08:43:23.724Z,2.93
2018-05-08T08:45:51.949Z,2.90
2018-05-08T08:48:19.437Z,3.43
2018-05-08T08:50:47.087Z,3.03
2018-05-08T08:53:14.566Z,3.30
2018-05-08T08:55:42.033Z,3.00
2018-05-08T08:58:10.279Z,2.70
2018-05-08T09:00:38.784Z,3.37
2018-05-08T09:03:07.002Z,2.77
2018-05-08T09:05:34.473Z,3.10
2018-05-08T09:08:01.977Z,3.00
2018-05-08T09:10:30.906Z,3.00
2018-05-08T09:12:58.361Z,3.03
2018-05-08T09:15:25.827Z,2.70
2018-05-08T09:17:53.300Z,2.80
2018-05-08T09:20:20.780Z,3.27
2018-05-08T09:22:48.350Z,2.83
2018-05-08T09:25:16.611Z,3.20
2018-05-08T09:27:44.112Z,2.90
2018-05-08T09:30:12.315Z,3.10
2018-05-08T09:32:39.783Z,2.60
2018-05-08T09:35:07.245Z,2.70
2018-05-08T09:37:34.800Z,2.80
2018-05-08T09:40:02.282Z,2.80
2018-05-08T09:42:29.747Z,3.07
2018-05-08T09:44:57.979Z,2.83
2018-05-08T09:47:25.465Z,3.17
2018-05-08T09:49:53.690Z,2.90
2018-05-08T09:52:21.171Z,3.00
2018-05-08T09:54:49.135Z,3.00
2018-05-08T09:57:16.612Z,2.50
2018-05-08T09:59:44.863Z,3.00
2018-05-08T10:02:12.339Z,2.37
2018-05-08T10:04:39.829Z,2.70
2018-05-08T10:07:08.044Z,3.00
2018-05-08T10:09:35.519Z,2.97
2018-05-08T10:12:02.996Z,2.53
2018-05-08T10:14:30.470Z,2.57
2018-05-08T10:16:58.696Z,2.60
2018-05-08T10:19:26.163Z,2.50
2018-05-08T10:21:53.621Z,3.20
2018-05-08T10:24:21.096Z,2.30
2018-05-08T10:26:50.364Z,2.47
2018-05-08T10:29:18.027Z,2.60
2018-05-08T10:31:45.507Z,2.20
2018-05-08T10:34:12.980Z,2.17
2018-05-08T10:36:40.461Z,2.53
2018-05-08T10:39:07.924Z,2.00
2018-05-08T10:41:35.425Z,2.53
2018-05-08T10:44:02.889Z,2.23
2018-05-08T10:46:30.360Z,2.63
2018-05-08T10:48:57.840Z,2.30
2018-05-08T10:51:26.071Z,2.50
2018-05-08T10:53:53.921Z,1.90
2018-05-08T10:56:21.477Z,2.27
2018-05-08T10:58:48.929Z,2.50
2018-05-08T11:01:16.416Z,2.37
2018-05-08T11:03:43.882Z,2.33
2018-05-08T11:06:11.355Z,1.70
2018-05-08T11:08:38.831Z,2.20
2018-05-08T11:11:06.308Z,2.40
2018-05-08T11:13:33.784Z,2.57
2018-05-08T11:16:01.263Z,2.30
2018-05-08T11:18:28.740Z,2.50
2018-05-08T11:20:56.969Z,1.93
2018-05-08T11:23:24.441Z,2.40
2018-05-08T11:25:51.896Z,2.30
2018-05-08T11:28:19.371Z,2.73
2018-05-08T11:30:46.832Z,2.80
2018-05-08T11:33:14.332Z,2.00
2018-05-08T11:35:42.616Z,2.33
2018-05-08T11:38:10.096Z,2.10
2018-05-08T11:40:37.581Z,2.43
2018-05-08T11:43:05.061Z,2.50
2018-05-08T11:45:33.299Z,3.80
2018-05-08T11:48:00.769Z,2.70
2018-05-08T11:50:28.232Z,2.93
2018-05-08T11:52:55.946Z,2.30
2018-05-08T11:55:23.401Z,2.90
2018-05-08T11:57:50.948Z,2.93
2018-05-08T12:00:18.413Z,2.87
2018-05-08T12:02:45.943Z,2.20
2018-05-08T12:05:13.546Z,2.70
2018-05-08T12:07:41.095Z,2.87
2018-05-08T12:10:08.563Z,2.33
2018-05-08T12:12:36.024Z,2.57
2018-05-08T12:15:03.499Z,1.80
2018-05-08T12:17:30.948Z,3.40
2018-05-08T12:19:58.427Z,3.37
2018-05-08T12:22:25.888Z,3.03
2018-05-08T12:24:53.343Z,3.00
2018-05-08T12:27:22.431Z,3.90
2018-05-08T12:29:49.904Z,3.60
2018-05-08T12:32:18.169Z,3.40
2018-05-08T12:34:45.645Z,2.93
2018-05-08T12:37:13.876Z,2.30
2018-05-08T12:39:41.353Z,2.60
2018-05-08T12:42:08.846Z,2.27
2018-05-08T12:44:37.077Z,2.60
2018-05-08T12:47:04.566Z,3.07
2018-05-08T12:49:32.789Z,2.50
2018-05-08T12:52:00.312Z,2.50
2018-05-08T12:54:27.792Z,2.63
2018-05-08T12:56:55.268Z,2.57
2018-05-08T12:59:22.748Z,2.33
2018-05-08T13:01:50.212Z,2.00
2018-05-08T13:04:17.692Z,2.00
2018-05-08T13:06:45.204Z,2.60
2018-05-08T13:09:12.791Z,2.27
2018-05-08T13:11:40.270Z,2.37
2018-05-08T13:14:08.533Z,2.20
2018-05-08T13:16:36.796Z,2.23
2018-05-08T13:19:04.253Z,2.47
2018-05-08T13:21:31.708Z,2.20
2018-05-08T13:23:59.443Z,2.27
2018-05-08T13:26:26.912Z,2.13
2018-05-08T13:28:54.388Z,2.20
2018-05-08T13:31:21.852Z,2.17
2018-05-08T13:33:50.096Z,2.43
2018-05-08T13:36:17.559Z,1.97
2018-05-08T13:38:45.029Z,2.00
2018-05-08T13:41:12.497Z,2.37
2018-05-08T13:43:40.734Z,2.00
2018-05-08T13:46:08.213Z,1.97
2018-05-08T13:48:35.804Z,2.27
2018-05-08T13:51:04.056Z,2.33
2018-05-08T13:53:31.512Z,2.30
2018-05-08T13:55:58.988Z,2.10
2018-05-08T13:58:27.220Z,2.43
2018-05-08T14:00:54.789Z,2.30
2018-05-08T14:03:22.955Z,2.20
2018-05-08T14:05:50.443Z,2.00
2018-05-08T14:08:17.917Z,2.37
2018-05-08T14:10:46.296Z,2.40
2018-05-08T14:13:14.550Z,2.10
2018-05-08T14:15:43.744Z,2.10
2018-05-08T14:18:11.979Z,2.20
2018-05-08T14:20:39.454Z,2.17
2018-05-08T14:23:06.924Z,2.30
2018-05-08T14:25:34.403Z,2.73
2018-05-08T14:28:02.980Z,2.33
2018-05-08T14:30:31.226Z,2.20
2018-05-08T14:32:58.708Z,1.90
2018-05-08T14:35:26.200Z,2.33
2018-05-08T14:37:53.673Z,2.00
2018-05-08T14:40:21.144Z,2.20
2018-05-08T14:42:48.638Z,2.00
2018-05-08T14:45:16.098Z,1.90
2018-05-08T14:47:43.568Z,2.23
2018-05-08T14:50:11.800Z,2.40
2018-05-08T14:52:39.275Z,2.50
2018-05-08T14:55:06.768Z,1.80
2018-05-08T14:57:34.312Z,2.30
2018-05-08T15:00:02.567Z,2.50
2018-05-08T15:02:30.048Z,2.23
2018-05-08T15:04:58.324Z,2.20
2018-05-08T15:07:25.874Z,2.07
2018-05-08T15:09:54.134Z,2.00
2018-05-08T15:12:21.607Z,2.10
2018-05-08T15:14:49.076Z,2.17
2018-05-08T15:17:17.328Z,1.90
2018-05-08T15:19:44.806Z,2.07
2018-05-08T15:22:12.298Z,2.13
2018-05-08T15:24:39.774Z,2.40
2018-05-08T15:27:07.655Z,2.30
2018-05-08T15:29:35.123Z,1.93
2018-05-08T15:32:02.592Z,2.27
2018-05-08T15:34:30.864Z,2.10
2018-05-08T15:36:59.148Z,2.23
2018-05-08T15:39:27.413Z,2.10
2018-05-08T15:41:54.880Z,2.40
2018-05-08T15:44:23.134Z,2.00
2018-05-08T15:46:50.660Z,2.10
2018-05-08T15:49:18.920Z,2.07
2018-05-08T15:51:46.395Z,2.10
2018-05-08T15:54:13.940Z,2.10
2018-05-08T15:56:41.508Z,2.40
2018-05-08T15:59:08.977Z,1.87
2018-05-08T16:01:36.454Z,1.93
2018-05-08T16:04:03.933Z,2.00
2018-05-08T16:06:32.195Z,2.37
2018-05-08T16:08:59.681Z,2.07
2018-05-08T16:11:28.076Z,1.93
2018-05-08T16:13:55.473Z,2.10
2018-05-08T16:16:22.997Z,2.10
2018-05-08T16:18:50.489Z,2.20
2018-05-08T16:21:17.992Z,2.13
2018-05-08T16:23:46.220Z,2.10
2018-05-08T16:26:13.760Z,2.20
2018-05-08T16:28:41.229Z,1.87
2018-05-08T16:31:08.873Z,2.00
2018-05-08T16:33:36.519Z,2.20
2018-05-08T16:36:03.996Z,2.73
2018-05-08T16:38:32.111Z,2.40
2018-05-08T16:40:59.871Z,1.93
2018-05-08T16:43:27.459Z,2.00
2018-05-08T16:45:54.920Z,2.07
2018-05-08T16:48:22.614Z,2.00
2018-05-08T16:50:50.801Z,1.87
2018-05-08T16:53:18.287Z,1.90
2018-05-08T16:55:45.755Z,2.33
2018-05-08T16:58:14.667Z,1.90
2018-05-08T17:00:42.151Z,1.63
2018-05-08T17:03:09.719Z,1.73
2018-05-08T17:05:37.178Z,2.10
2018-05-08T17:08:05.068Z,1.73
2018-05-08T17:10:32.631Z,2.33
2018-05-08T17:13:00.101Z,2.60
2018-05-08T17:15:28.550Z,1.87
2018-05-08T17:17:56.048Z,1.97
2018-05-08T17:20:23.568Z,2.83
2018-05-08T17:22:51.030Z,2.53
2018-05-08T17:25:18.717Z,1.87
2018-05-08T17:27:46.236Z,2.03
2018-05-08T17:30:13.943Z,2.30
2018-05-08T17:32:41.465Z,2.60
2018-05-08T17:35:09.609Z,3.00
2018-05-08T17:37:37.102Z,2.40
2018-05-08T17:40:04.573Z,1.97
2018-05-08T17:42:32.027Z,2.00
2018-05-08T17:44:59.518Z,2.47
2018-05-08T17:47:26.998Z,2.00
2018-05-08T17:49:54.489Z,2.10
2018-05-08T17:52:21.970Z,1.90
2018-05-08T17:54:50.201Z,2.60
2018-05-08T17:57:17.720Z,1.90
2018-05-08T17:59:45.328Z,1.83
2018-05-08T18:02:12.873Z,1.80
2018-05-08T18:04:40.682Z,2.23
2018-05-08T18:07:08.966Z,1.90
2018-05-08T18:09:37.457Z,1.77
2018-05-08T18:12:04.951Z,1.70
2018-05-08T18:14:32.437Z,2.17
2018-05-08T18:16:59.967Z,2.10
2018-05-08T18:19:27.614Z,2.17
2018-05-08T18:21:55.090Z,2.13
2018-05-08T18:24:22.779Z,2.30
2018-05-08T18:26:50.269Z,2.03
2018-05-08T18:29:18.244Z,2.40
2018-05-08T18:31:46.491Z,2.00
2018-05-08T18:34:14.906Z,1.90
2018-05-08T18:36:42.536Z,2.23
2018-05-08T18:39:10.789Z,2.70
2018-05-08T18:41:38.256Z,2.10
2018-05-08T18:44:05.759Z,2.67
2018-05-08T18:46:34.021Z,2.93
2018-05-08T18:49:02.271Z,2.83
2018-05-08T18:51:31.245Z,2.20
2018-05-08T18:53:58.749Z,2.03
2018-05-08T18:56:26.236Z,2.43
2018-05-08T18:58:53.729Z,2.00
2018-05-08T19:01:22.034Z,2.20
2018-05-08T19:03:50.521Z,2.67
2018-05-08T19:06:17.929Z,2.50
2018-05-08T19:08:45.745Z,2.80
2018-05-08T19:11:18.912Z,3.40
2018-05-08T19:13:47.187Z,3.00
2018-05-08T19:16:15.439Z,2.30
2018-05-08T19:18:48.518Z,2.30
2018-05-08T19:21:15.995Z,2.00
2018-05-08T19:23:49.312Z,2.23
2018-05-08T19:26:17.552Z,2.30
2018-05-08T19:28:50.602Z,2.30
2018-05-08T19:31:18.091Z,2.07
2018-05-08T19:33:45.558Z,3.00
2018-05-08T19:36:18.690Z,1.90
2018-05-08T19:38:46.164Z,2.17
2018-05-08T19:41:13.677Z,2.87
2018-05-08T19:43:41.147Z,2.37
2018-05-08T19:46:09.421Z,3.37
2018-05-08T19:48:37.681Z,2.87
2018-05-08T19:51:05.159Z,4.27
2018-05-08T19:53:33.467Z,3.63
2018-05-08T19:56:01.724Z,3.60
2018-05-08T19:58:29.991Z,2.97
2018-05-08T20:00:58.232Z,2.50
2018-05-08T20:03:26.537Z,2.40
2018-05-08T20:05:54.945Z,2.70
2018-05-08T20:08:22.503Z,2.53
2018-05-08T20:10:49.975Z,2.40
2018-05-08T20:13:17.502Z,2.60
2018-05-08T20:15:45.152Z,2.53
2018-05-08T20:18:13.562Z,2.50
2018-05-08T20:20:41.083Z,3.20
2018-05-08T20:23:09.443Z,2.70
2018-05-08T20:25:37.007Z,3.73
2018-05-08T20:28:04.653Z,2.77
2018-05-08T20:30:32.190Z,3.60
2018-05-08T20:32:59.721Z,2.83
2018-05-08T20:35:28.435Z,2.90
2018-05-08T20:37:55.888Z,2.90
2018-05-08T20:40:23.383Z,3.23
2018-05-08T20:42:51.077Z,5.77
2018-05-08T20:45:18.832Z,4.20
2018-05-08T20:47:53.056Z,3.80
2018-05-08T20:50:20.730Z,3.20
2018-05-08T20:52:48.373Z,3.60
2018-05-08T20:55:16.825Z,3.90
2018-05-08T20:57:44.357Z,3.30
2018-05-08T21:00:12.238Z,3.23
2018-05-08T21:02:40.506Z,2.90
2018-05-08T21:05:08.308Z,3.20
2018-05-08T21:07:35.959Z,3.00
2018-05-08T21:10:03.486Z,3.27
2018-05-08T21:12:30.992Z,3.43
2018-05-08T21:14:59.514Z,3.07
2018-05-08T21:17:26.997Z,3.67
2018-05-08T21:19:54.883Z,3.73
2018-05-08T21:22:22.349Z,3.50
2018-05-08T21:24:50.634Z,3.50
2018-05-08T21:27:18.937Z,3.43
2018-05-08T21:29:52.472Z,3.20
2018-05-08T21:32:21.182Z,3.10
2018-05-08T21:34:49.664Z,2.70
2018-05-08T21:37:18.011Z,2.87
2018-05-08T21:39:45.698Z,3.37
2018-05-08T21:42:13.664Z,2.93
2018-05-08T21:44:42.136Z,3.13
2018-05-08T21:47:09.741Z,3.40
2018-05-08T21:49:37.590Z,3.37
2018-05-08T21:52:05.268Z,3.40
2018-05-08T21:54:32.742Z,3.00
2018-05-08T21:57:00.401Z,3.33
2018-05-08T21:59:27.937Z,2.93
2018-05-08T22:01:56.164Z,3.50
2018-05-08T22:04:23.636Z,3.40
2018-05-08T22:06:51.104Z,3.10
2018-05-08T22:09:19.400Z,2.97
2018-05-08T22:11:46.871Z,3.70
2018-05-08T22:14:14.367Z,3.57
2018-05-08T22:16:41.828Z,3.17
2018-05-08T22:19:09.297Z,4.10
2018-05-08T22:21:38.269Z,3.50
2018-05-08T22:24:05.736Z,3.30
2018-05-08T22:26:33.455Z,3.83
2018-05-08T22:29:00.922Z,3.23
2018-05-08T22:31:28.376Z,3.47
2018-05-08T22:33:55.849Z,3.30
2018-05-08T22:36:23.314Z,3.90
2018-05-08T22:38:50.775Z,4.00
2018-05-08T22:41:18.247Z,3.50
2018-05-08T22:43:46.480Z,3.50
2018-05-08T22:46:13.959Z,3.10
2018-05-08T22:48:41.426Z,3.40
2018-05-08T22:51:08.900Z,3.20
2018-05-08T22:53:37.138Z,3.70
2018-05-08T22:56:04.752Z,3.47
2018-05-08T22:58:33.084Z,3.50
2018-05-08T23:01:00.577Z,3.43
2018-05-08T23:03:28.136Z,3.60
2018-05-08T23:05:55.588Z,3.50
2018-05-08T23:08:23.059Z,2.90
2018-05-08T23:10:51.367Z,3.60
2018-05-08T23:13:18.830Z,3.33
2018-05-08T23:15:46.292Z,2.90
2018-05-08T23:18:13.867Z,3.20
2018-05-08T23:20:41.251Z,3.67
2018-05-08T23:23:08.721Z,3.40
2018-05-08T23:25:36.988Z,4.00
2018-05-08T23:28:04.462Z,3.77
2018-05-08T23:30:32.704Z,3.60
2018-05-08T23:33:00.182Z,3.57
2018-05-08T23:35:28.429Z,3.20
2018-05-08T23:37:55.891Z,3.80
2018-05-08T23:40:23.367Z,3.70
2018-05-08T23:42:51.592Z,3.30
2018-05-08T23:45:19.073Z,3.63
2018-05-08T23:47:46.528Z,3.40
2018-05-08T23:50:14.017Z,3.10
2018-05-08T23:52:42.239Z,3.30
2018-05-08T23:55:09.714Z,3.83
2018-05-08T23:57:37.172Z,3.53
